createdAt,value
2022-09-20T00:01:01.283Z,100451.03
2022-09-20T00:03:27.766Z,100452.34
2022-09-20T00:05:54.018Z,100463.06
2022-09-20T00:08:20.292Z,100459.63
2022-09-20T00:10:47.256Z,100458.88
2022-09-20T00:13:13.543Z,100457.59
2022-09-20T00:15:39.801Z,100457.00
2022-09-20T00:18:06.049Z,100461.38
2022-09-20T00:20:32.439Z,100457.28
2022-09-20T00:22:58.687Z,100450.25
2022-09-20T00:25:24.953Z,100448.19
2022-09-20T00:27:51.227Z,100454.13
2022-09-20T00:30:17.504Z,100459.50
2022-09-20T00:32:43.765Z,100455.47
2022-09-20T00:35:13.171Z,100466.06
2022-09-20T00:37:39.713Z,100457.91
2022-09-20T00:40:06.027Z,100453.00
2022-09-20T00:42:32.360Z,100450.59
2022-09-20T00:44:58.718Z,100447.59
2022-09-20T00:47:24.976Z,100453.84
2022-09-20T00:49:51.230Z,100456.53
2022-09-20T00:52:17.477Z,100451.38
2022-09-20T00:54:43.737Z,100440.44
2022-09-20T00:57:09.996Z,100445.56
2022-09-20T00:59:36.280Z,100448.91
2022-09-20T01:02:03.074Z,100463.38
2022-09-20T01:04:29.422Z,100461.38
2022-09-20T01:06:55.673Z,100463.09
2022-09-20T01:09:21.935Z,100454.72
2022-09-20T01:11:48.226Z,100453.31
2022-09-20T01:14:14.808Z,100455.91
2022-09-20T01:16:41.224Z,100449.44
2022-09-20T01:19:07.672Z,100451.28
2022-09-20T01:21:33.961Z,100450.19
2022-09-20T01:24:00.216Z,100450.06
2022-09-20T01:26:26.466Z,100453.72
2022-09-20T01:28:52.883Z,100451.94
2022-09-20T01:31:19.328Z,100450.53
2022-09-20T01:33:45.648Z,100447.59
2022-09-20T01:36:11.906Z,100443.84
2022-09-20T01:38:38.191Z,100441.59
2022-09-20T01:41:04.447Z,100448.69
2022-09-20T01:43:30.735Z,100442.44
2022-09-20T01:45:57.089Z,100441.38
2022-09-20T01:48:23.394Z,100448.59
2022-09-20T01:50:49.638Z,100452.13
2022-09-20T01:53:15.889Z,100447.41
2022-09-20T01:55:42.137Z,100450.28
2022-09-20T01:58:11.444Z,100447.38
2022-09-20T02:00:37.696Z,100442.88
2022-09-20T02:03:04.058Z,100449.34
2022-09-20T02:05:30.316Z,100446.75
2022-09-20T02:07:56.596Z,100446.66
2022-09-20T02:10:22.855Z,100449.31
2022-09-20T02:12:49.143Z,100449.31
2022-09-20T02:15:15.396Z,100448.16
2022-09-20T02:17:41.687Z,100454.91
2022-09-20T02:20:08.348Z,100448.25
2022-09-20T02:22:35.242Z,100450.94
2022-09-20T02:25:01.494Z,100449.25
2022-09-20T02:27:27.744Z,100449.34
2022-09-20T02:29:53.990Z,100457.94
2022-09-20T02:32:20.247Z,100451.38
2022-09-20T02:34:46.917Z,100454.38
2022-09-20T02:37:13.163Z,100448.78
2022-09-20T02:39:39.441Z,100461.47
2022-09-20T02:42:05.687Z,100469.06
2022-09-20T02:44:31.947Z,100462.22
2022-09-20T02:46:58.191Z,100473.38
2022-09-20T02:49:24.446Z,100464.59
2022-09-20T02:51:51.802Z,100467.59
2022-09-20T02:54:18.118Z,100467.81
2022-09-20T02:56:44.375Z,100476.31
2022-09-20T02:59:10.623Z,100479.19
2022-09-20T03:01:36.930Z,100472.75
2022-09-20T03:04:03.404Z,100476.84
2022-09-20T03:06:29.667Z,100483.16
2022-09-20T03:08:55.952Z,100484.66
2022-09-20T03:11:22.209Z,100481.13
2022-09-20T03:13:48.713Z,100479.63
2022-09-20T03:16:15.041Z,100485.19
2022-09-20T03:18:42.143Z,100483.47
2022-09-20T03:21:08.342Z,100484.44
2022-09-20T03:23:34.602Z,100484.34
2022-09-20T03:26:00.863Z,100491.09
2022-09-20T03:28:27.135Z,100494.88
2022-09-20T03:30:53.408Z,100489.16
2022-09-20T03:33:19.675Z,100494.00
2022-09-20T03:35:45.949Z,100488.97
2022-09-20T03:38:12.205Z,100492.25
2022-09-20T03:40:40.759Z,100492.78
2022-09-20T03:43:10.375Z,100483.34
2022-09-20T03:45:36.838Z,100487.13
2022-09-20T03:48:03.138Z,100489.19
2022-09-20T03:50:29.395Z,100489.50
2022-09-20T03:52:55.648Z,100493.72
2022-09-20T03:55:22.505Z,100494.31
2022-09-20T03:57:48.768Z,100495.56
2022-09-20T04:00:15.034Z,100491.16
2022-09-20T04:02:41.375Z,100495.28
2022-09-20T04:05:07.665Z,100496.75
2022-09-20T04:07:33.926Z,100502.56
2022-09-20T04:10:00.213Z,100505.06
2022-09-20T04:12:27.075Z,100501.06
2022-09-20T04:14:53.710Z,100509.56
2022-09-20T04:17:19.999Z,100522.63
2022-09-20T04:19:46.250Z,100508.69
2022-09-20T04:22:12.529Z,100508.25
2022-09-20T04:24:39.026Z,100510.75
2022-09-20T04:27:05.284Z,100510.44
2022-09-20T04:29:31.696Z,100513.31
2022-09-20T04:31:57.973Z,100510.75
2022-09-20T04:34:24.323Z,100515.16
2022-09-20T04:36:50.587Z,100516.25
2022-09-20T04:39:16.854Z,100519.47
2022-09-20T04:41:43.166Z,100518.88
2022-09-20T04:44:12.008Z,100521.50
2022-09-20T04:46:38.303Z,100527.06
2022-09-20T04:49:04.555Z,100529.63
2022-09-20T04:51:30.814Z,100518.81
2022-09-20T04:53:57.324Z,100521.28
2022-09-20T04:56:23.588Z,100518.69
2022-09-20T04:58:49.975Z,100528.28
2022-09-20T05:01:19.767Z,100533.94
2022-09-20T05:03:46.115Z,100539.88
2022-09-20T05:06:13.855Z,100538.22
2022-09-20T05:08:40.774Z,100532.22
2022-09-20T05:11:09.018Z,100533.72
2022-09-20T05:13:35.287Z,100546.41
2022-09-20T05:16:01.671Z,100545.34
2022-09-20T05:18:27.944Z,100548.03
2022-09-20T05:20:54.356Z,100555.44
2022-09-20T05:23:20.722Z,100559.13
2022-09-20T05:25:46.978Z,100553.03
2022-09-20T05:28:13.359Z,100559.13
2022-09-20T05:30:39.624Z,100556.03
2022-09-20T05:33:05.992Z,100559.34
2022-09-20T05:35:32.269Z,100562.78
2022-09-20T05:37:59.143Z,100561.31
2022-09-20T05:40:25.460Z,100564.16
2022-09-20T05:42:53.921Z,100569.16
2022-09-20T05:45:21.487Z,100570.16
2022-09-20T05:47:47.748Z,100568.50
2022-09-20T05:50:15.104Z,100571.75
2022-09-20T05:52:41.371Z,100577.03
2022-09-20T05:55:07.643Z,100573.38
2022-09-20T05:57:33.994Z,100576.34
2022-09-20T06:00:00.458Z,100573.81
2022-09-20T06:02:27.173Z,100578.19
2022-09-20T06:04:56.523Z,100585.78
2022-09-20T06:07:22.927Z,100582.25
2022-09-20T06:09:49.173Z,100588.94
2022-09-20T06:12:15.415Z,100587.13
2022-09-20T06:14:42.760Z,100585.34
2022-09-20T06:17:09.017Z,100599.97
2022-09-20T06:19:35.443Z,100589.25
2022-09-20T06:22:03.770Z,100597.41
2022-09-20T06:24:30.553Z,100591.75
2022-09-20T06:26:56.800Z,100599.03
2022-09-20T06:29:23.038Z,100597.34
2022-09-20T06:31:49.314Z,100596.22
2022-09-20T06:34:15.651Z,100598.84
2022-09-20T06:37:00.595Z,100601.50
2022-09-20T06:39:45.412Z,100599.06
2022-09-20T06:42:11.661Z,100603.66
2022-09-20T06:44:43.123Z,100598.94
2022-09-20T06:47:09.887Z,100596.44
2022-09-20T06:49:36.429Z,100592.59
2022-09-20T06:52:02.967Z,100598.09
2022-09-20T06:54:29.467Z,100600.66
2022-09-20T06:56:55.777Z,100611.41
2022-09-20T06:59:22.095Z,100601.69
2022-09-20T07:01:48.415Z,100604.19
2022-09-20T07:04:14.742Z,100614.81
2022-09-20T07:06:41.326Z,100611.81
2022-09-20T07:09:07.597Z,100618.69
2022-09-20T07:11:37.312Z,100620.84
2022-09-20T07:14:03.583Z,100617.88
2022-09-20T07:16:29.910Z,100622.81
2022-09-20T07:18:56.838Z,100627.97
2022-09-20T07:21:23.180Z,100629.03
2022-09-20T07:23:51.121Z,100621.84
2022-09-20T07:26:17.438Z,100627.75
2022-09-20T07:28:43.704Z,100624.53
2022-09-20T07:31:10.516Z,100630.97
2022-09-20T07:33:36.780Z,100629.69
2022-09-20T07:36:03.061Z,100637.00
2022-09-20T07:38:29.321Z,100648.09
2022-09-20T07:40:55.973Z,100651.16
2022-09-20T07:43:22.701Z,100653.59
2022-09-20T07:45:49.493Z,100655.31
2022-09-20T07:48:16.191Z,100657.63
2022-09-20T07:50:42.660Z,100654.31
2022-09-20T07:53:08.919Z,100657.53
2022-09-20T07:55:35.628Z,100657.41
2022-09-20T07:58:01.878Z,100657.94
2022-09-20T08:00:28.141Z,100658.28
2022-09-20T08:02:54.397Z,100664.59
2022-09-20T08:05:20.671Z,100660.03
2022-09-20T08:07:46.909Z,100664.47
2022-09-20T08:10:13.313Z,100661.97
2022-09-20T08:15:27.275Z,100662.38
2022-09-20T08:17:53.523Z,100661.84
2022-09-20T08:20:20.200Z,100678.72
2022-09-20T08:23:00.920Z,100672.78
2022-09-20T08:25:32.825Z,100671.66
2022-09-20T08:27:59.083Z,100671.41
2022-09-20T08:30:27.767Z,100674.63
2022-09-20T08:32:55.689Z,100678.09
2022-09-20T08:35:22.532Z,100673.97
2022-09-20T08:37:48.815Z,100680.97
2022-09-20T08:40:15.742Z,100681.63
2022-09-20T08:42:44.790Z,100684.41
2022-09-20T08:45:11.421Z,100681.25
2022-09-20T08:47:38.793Z,100677.28
2022-09-20T08:50:17.296Z,100676.75
2022-09-20T08:52:44.767Z,100685.97
2022-09-20T08:55:11.026Z,100687.47
2022-09-20T08:57:37.282Z,100690.13
2022-09-20T09:00:03.526Z,100692.91
2022-09-20T09:02:29.800Z,100694.41
2022-09-20T09:04:56.270Z,100692.25
2022-09-20T09:07:22.642Z,100690.00
2022-09-20T09:09:48.889Z,100685.78
2022-09-20T09:12:15.159Z,100695.78
2022-09-20T09:14:57.150Z,100693.41
2022-09-20T09:17:27.363Z,100695.88
2022-09-20T09:19:54.054Z,100698.94
2022-09-20T09:22:20.604Z,100691.22
2022-09-20T09:24:46.864Z,100692.91
2022-09-20T09:27:13.136Z,100701.09
2022-09-20T09:29:39.401Z,100700.94
2022-09-20T09:32:05.729Z,100699.72
2022-09-20T09:34:32.068Z,100700.31
2022-09-20T09:36:58.368Z,100706.38
2022-09-20T09:39:24.652Z,100702.72
2022-09-20T09:41:51.156Z,100707.72
2022-09-20T09:44:18.187Z,100702.59
2022-09-20T09:46:44.447Z,100704.38
2022-09-20T09:49:12.554Z,100700.28
2022-09-20T09:51:39.278Z,100709.66
2022-09-20T09:54:05.525Z,100702.53
2022-09-20T09:56:31.915Z,100699.41
2022-09-20T09:58:58.294Z,100703.13
2022-09-20T10:01:24.601Z,100703.50
2022-09-20T10:03:50.869Z,100704.88
2022-09-20T10:06:18.215Z,100708.22
2022-09-20T10:08:44.613Z,100700.66
2022-09-20T10:11:11.298Z,100701.28
2022-09-20T10:13:40.625Z,100710.81
2022-09-20T10:16:07.230Z,100709.41
2022-09-20T10:18:33.595Z,100706.97
2022-09-20T10:20:59.946Z,100711.13
2022-09-20T10:23:51.579Z,100712.38
2022-09-20T10:26:13.331Z,100711.44
2022-09-20T10:28:48.283Z,100715.81
2022-09-20T10:31:14.710Z,100708.16
2022-09-20T10:33:41.315Z,100713.25
2022-09-20T10:36:07.572Z,100713.56
2022-09-20T10:38:33.835Z,100709.03
2022-09-20T10:41:18.961Z,100719.63
2022-09-20T10:43:45.229Z,100704.31
2022-09-20T10:46:31.345Z,100716.44
2022-09-20T10:48:58.016Z,100716.31
2022-09-20T10:51:25.119Z,100719.41
2022-09-20T10:53:52.039Z,100722.41
2022-09-20T10:56:18.308Z,100725.47
2022-09-20T10:58:46.389Z,100723.69
2022-09-20T11:01:12.680Z,100716.47
2022-09-20T11:03:39.034Z,100718.47
2022-09-20T11:06:06.259Z,100713.00
2022-09-20T11:08:32.524Z,100717.44
2022-09-20T11:10:58.782Z,100722.84
2022-09-20T11:13:25.051Z,100713.00
2022-09-20T11:15:52.535Z,100714.47
2022-09-20T11:18:23.377Z,100720.22
2022-09-20T11:20:49.665Z,100724.91
2022-09-20T11:23:15.938Z,100721.09
2022-09-20T11:25:44.251Z,100721.06
2022-09-20T11:28:10.564Z,100728.47
2022-09-20T11:30:36.807Z,100727.50
2022-09-20T11:33:03.077Z,100724.53
2022-09-20T11:35:29.327Z,100717.06
2022-09-20T11:37:56.739Z,100721.09
2022-09-20T11:40:23.048Z,100729.16
2022-09-20T11:42:49.337Z,100723.06
2022-09-20T11:45:15.573Z,100720.13
2022-09-20T11:47:54.457Z,100714.38
2022-09-20T11:50:21.692Z,100720.09
2022-09-20T11:52:47.959Z,100712.22
2022-09-20T11:55:14.451Z,100710.97
2022-09-20T11:57:40.719Z,100711.63
2022-09-20T12:00:08.521Z,100708.72
2022-09-20T12:02:34.976Z,100704.72
2022-09-20T12:05:01.933Z,100715.56
2022-09-20T12:07:28.216Z,100704.44
2022-09-20T12:09:54.463Z,100709.81
2022-09-20T12:12:21.226Z,100708.34
2022-09-20T12:14:48.862Z,100710.78
2022-09-20T12:17:15.287Z,100704.16
2022-09-20T12:19:41.537Z,100705.25
2022-09-20T12:22:07.790Z,100707.00
2022-09-20T12:24:34.029Z,100701.72
2022-09-20T12:27:00.373Z,100699.88
2022-09-20T12:29:31.156Z,100697.72
2022-09-20T12:31:57.464Z,100694.06
2022-09-20T12:34:23.758Z,100696.91
2022-09-20T12:36:50.034Z,100695.00
2022-09-20T12:39:21.244Z,100694.06
2022-09-20T12:41:49.640Z,100691.75
2022-09-20T12:44:15.945Z,100695.53
2022-09-20T12:46:42.240Z,100693.38
2022-09-20T12:49:08.598Z,100692.28
2022-09-20T12:51:53.679Z,100702.06
2022-09-20T12:54:19.937Z,100695.09
2022-09-20T12:56:46.613Z,100691.81
2022-09-20T12:59:12.868Z,100697.00
2022-09-20T13:01:39.230Z,100697.63
2022-09-20T13:04:05.724Z,100696.41
2022-09-20T13:06:32.103Z,100701.91
2022-09-20T13:08:58.716Z,100702.16
2022-09-20T13:11:25.121Z,100699.38
2022-09-20T13:13:51.573Z,100706.47
2022-09-20T13:16:20.015Z,100704.44
2022-09-20T13:18:46.402Z,100702.47
2022-09-20T13:21:12.682Z,100701.97
2022-09-20T13:23:39.851Z,100701.53
2022-09-20T13:26:06.970Z,100708.41
2022-09-20T13:28:33.200Z,100706.16
2022-09-20T13:30:59.450Z,100695.06
2022-09-20T13:33:25.699Z,100700.88
2022-09-20T13:35:52.334Z,100694.00
2022-09-20T13:38:22.558Z,100706.59
2022-09-20T13:40:48.849Z,100695.75
2022-09-20T13:43:23.629Z,100705.31
2022-09-20T13:45:50.946Z,100711.25
2022-09-20T13:48:17.305Z,100703.19
2022-09-20T13:50:48.057Z,100708.25
2022-09-20T13:53:33.285Z,100705.84
2022-09-20T13:56:02.720Z,100710.97
2022-09-20T13:58:28.975Z,100709.97
2022-09-20T14:00:55.317Z,100724.34
2022-09-20T14:03:21.610Z,100725.50
2022-09-20T14:05:47.946Z,100749.94
2022-09-20T14:08:14.284Z,100750.19
2022-09-20T14:10:42.953Z,100784.34
2022-09-20T14:13:09.498Z,100756.97
2022-09-20T14:15:35.816Z,100770.28
2022-09-20T14:18:04.337Z,100770.16
2022-09-20T14:20:30.573Z,100768.91
2022-09-20T14:22:59.106Z,100770.28
2022-09-20T14:25:25.846Z,100772.84
2022-09-20T14:27:52.104Z,100767.41
2022-09-20T14:30:18.354Z,100770.09
2022-09-20T14:32:44.934Z,100768.88
2022-09-20T14:35:11.189Z,100772.66
2022-09-20T14:37:37.574Z,100766.50
2022-09-20T14:40:04.126Z,100768.63
2022-09-20T14:42:30.429Z,100760.84
2022-09-20T14:44:56.691Z,100755.69
2022-09-20T14:47:23.113Z,100752.72
2022-09-20T14:49:49.807Z,100750.47
2022-09-20T14:52:16.099Z,100757.03
2022-09-20T14:54:42.364Z,100767.50
2022-09-20T14:57:08.614Z,100756.59
2022-09-20T14:59:34.861Z,100761.28
2022-09-20T15:02:01.121Z,100751.41
2022-09-20T15:04:28.443Z,100756.16
2022-09-20T15:06:54.712Z,100757.84
2022-09-20T15:09:20.975Z,100760.09
2022-09-20T15:11:47.242Z,100759.00
2022-09-20T15:14:13.567Z,100763.66
2022-09-20T15:16:39.982Z,100768.34
2022-09-20T15:19:07.956Z,100757.53
2022-09-20T15:21:34.225Z,100761.19
2022-09-20T15:24:00.543Z,100764.47
2022-09-20T15:26:26.791Z,100774.22
2022-09-20T15:28:53.114Z,100763.78
2022-09-20T15:31:20.198Z,100775.53
2022-09-20T15:33:46.439Z,100779.19
2022-09-20T15:36:12.698Z,100769.66
2022-09-20T15:38:39.178Z,100771.31
2022-09-20T15:41:05.903Z,100781.28
2022-09-20T15:43:32.187Z,100781.09
2022-09-20T15:46:00.504Z,100789.28
2022-09-20T15:48:26.814Z,100786.38
2022-09-20T15:50:53.076Z,100786.75
2022-09-20T15:53:19.344Z,100787.50
2022-09-20T15:55:45.899Z,100784.53
2022-09-20T15:58:13.967Z,100785.84
2022-09-20T16:00:40.642Z,100792.03
2022-09-20T16:03:06.945Z,100800.19
2022-09-20T16:05:33.225Z,100795.78
2022-09-20T16:07:59.482Z,100795.94
2022-09-20T16:10:25.793Z,100798.84
2022-09-20T16:12:52.052Z,100799.69
2022-09-20T16:15:18.307Z,100797.56
2022-09-20T16:18:03.363Z,100801.66
2022-09-20T16:20:29.612Z,100798.38
2022-09-20T16:22:55.879Z,100811.00
2022-09-20T16:25:22.125Z,100805.38
2022-09-20T16:27:48.387Z,100808.22
2022-09-20T16:30:15.112Z,100809.41
2022-09-20T16:32:41.985Z,100820.84
2022-09-20T16:35:08.285Z,100816.75
2022-09-20T16:37:36.703Z,100817.56
2022-09-20T16:40:03.873Z,100819.50
2022-09-20T16:42:30.142Z,100832.16
2022-09-20T16:44:57.219Z,100833.03
2022-09-20T16:47:25.058Z,100832.69
2022-09-20T16:49:53.106Z,100831.97
2022-09-20T16:52:19.432Z,100846.06
2022-09-20T16:54:45.687Z,100832.72
2022-09-20T16:57:15.423Z,100834.56
2022-09-20T16:59:42.095Z,100842.50
2022-09-20T17:02:08.415Z,100840.81
2022-09-20T17:04:34.774Z,100840.81
2022-09-20T17:07:01.684Z,100852.53
2022-09-20T17:09:28.624Z,100869.13
2022-09-20T17:11:54.914Z,100891.72
2022-09-20T17:14:21.849Z,100904.09
2022-09-20T17:16:48.370Z,100898.78
2022-09-20T17:19:15.610Z,100897.16
2022-09-20T17:21:46.123Z,100894.53
2022-09-20T17:24:13.704Z,100913.41
2022-09-20T17:26:40.278Z,100927.97
2022-09-20T17:29:06.575Z,100938.31
2022-09-20T17:31:33.901Z,100922.63
2022-09-20T17:34:00.350Z,100908.69
2022-09-20T17:36:27.414Z,100906.13
2022-09-20T17:38:53.607Z,100895.16
2022-09-20T17:41:19.858Z,100898.63
2022-09-20T17:43:46.223Z,100896.47
2022-09-20T17:46:12.485Z,100902.31
2022-09-20T17:48:38.777Z,100902.75
2022-09-20T17:51:07.266Z,100906.00
2022-09-20T17:53:36.752Z,100904.47
2022-09-20T17:56:03.056Z,100911.63
2022-09-20T17:58:29.377Z,100908.16
2022-09-20T18:00:58.690Z,100914.25
2022-09-20T18:03:24.995Z,100915.69
2022-09-20T18:05:51.360Z,100914.75
2022-09-20T18:08:17.632Z,100920.59
2022-09-20T18:10:43.879Z,100917.22
2022-09-20T18:13:10.137Z,100916.66
2022-09-20T18:15:36.401Z,100922.72
2022-09-20T18:18:03.003Z,100916.66
2022-09-20T18:20:29.728Z,100925.44
2022-09-20T18:22:55.985Z,100932.09
2022-09-20T18:25:24.098Z,100933.94
2022-09-20T18:27:50.603Z,100936.13
2022-09-20T18:30:17.824Z,100944.44
2022-09-20T18:32:44.370Z,100938.75
2022-09-20T18:35:10.674Z,100946.63
2022-09-20T18:37:37.718Z,100951.81
2022-09-20T18:40:04.038Z,100956.31
2022-09-20T18:42:30.906Z,100952.00
2022-09-20T18:44:58.487Z,100964.59
2022-09-20T18:47:24.870Z,100959.53
2022-09-20T18:49:51.160Z,100961.53
2022-09-20T18:52:24.008Z,100959.25
2022-09-20T18:54:50.370Z,100977.13
2022-09-20T18:57:16.627Z,100964.09
2022-09-20T18:59:53.577Z,100965.03
2022-09-20T19:02:20.675Z,100969.75
2022-09-20T19:04:46.931Z,100972.72
2022-09-20T19:07:13.200Z,100976.53
2022-09-20T19:09:39.442Z,100975.84
2022-09-20T19:12:05.993Z,100968.78
2022-09-20T19:14:32.256Z,100974.22
2022-09-20T19:16:58.512Z,100976.25
2022-09-20T19:19:24.789Z,100977.41
2022-09-20T19:21:51.047Z,100977.28
2022-09-20T19:24:17.303Z,100989.38
2022-09-20T19:26:44.116Z,100994.56
2022-09-20T19:29:14.007Z,100996.88
2022-09-20T19:31:40.294Z,100997.63
2022-09-20T19:34:06.595Z,101007.50
2022-09-20T19:36:33.017Z,101010.88
2022-09-20T19:38:59.268Z,101010.00
2022-09-20T19:41:27.257Z,101008.31
2022-09-20T19:43:53.990Z,101020.53
2022-09-20T19:46:20.805Z,101019.19
2022-09-20T19:48:48.185Z,101014.69
2022-09-20T19:51:15.175Z,101017.28
2022-09-20T19:53:41.474Z,101012.69
2022-09-20T19:56:07.747Z,101019.13
2022-09-20T19:58:35.045Z,101019.78
2022-09-20T20:01:01.317Z,101020.84
2022-09-20T20:03:29.779Z,101031.72
2022-09-20T20:05:56.075Z,101024.94
2022-09-20T20:08:22.386Z,101024.84
2022-09-20T20:10:49.700Z,101031.28
2022-09-20T20:13:36.213Z,101029.63
2022-09-20T20:16:02.502Z,101037.09
2022-09-20T20:18:29.042Z,101028.66
2022-09-20T20:20:56.481Z,101034.94
2022-09-20T20:23:22.739Z,101035.06
2022-09-20T20:25:49.859Z,101037.75
2022-09-20T20:28:16.099Z,101041.56
2022-09-20T20:30:42.563Z,101048.91
2022-09-20T20:33:08.860Z,101050.66
2022-09-20T20:35:37.305Z,101051.44
2022-09-20T20:38:03.576Z,101051.97
2022-09-20T20:40:29.856Z,101056.72
2022-09-20T20:43:01.838Z,101049.19
2022-09-20T20:45:28.104Z,101060.91
2022-09-20T20:47:54.367Z,101064.75
2022-09-20T20:50:20.807Z,101063.53
2022-09-20T20:52:47.057Z,101069.56
2022-09-20T20:55:13.456Z,101069.88
2022-09-20T20:57:39.741Z,101067.66
2022-09-20T21:00:05.994Z,101071.94
2022-09-20T21:02:32.294Z,101069.47
2022-09-20T21:04:58.731Z,101067.13
2022-09-20T21:07:24.991Z,101070.72
2022-09-20T21:09:51.246Z,101070.72
2022-09-20T21:12:18.436Z,101080.94
2022-09-20T21:14:45.086Z,101074.22
2022-09-20T21:17:11.389Z,101072.22
2022-09-20T21:19:37.653Z,101073.00
2022-09-20T21:22:03.936Z,101070.13
2022-09-20T21:24:30.190Z,101074.66
2022-09-20T21:26:56.490Z,101073.34
2022-09-20T21:29:22.831Z,101076.72
2022-09-20T21:31:49.108Z,101072.22
2022-09-20T21:34:15.452Z,101079.41
2022-09-20T21:36:41.802Z,101083.72
2022-09-20T21:39:08.133Z,101080.00
2022-09-20T21:41:34.512Z,101086.06
2022-09-20T21:44:00.762Z,101081.47
2022-09-20T21:46:30.222Z,101081.34
2022-09-20T21:48:56.554Z,101087.78
2022-09-20T21:51:22.830Z,101089.50
2022-09-20T21:53:49.380Z,101095.56
2022-09-20T21:56:16.134Z,101092.00
2022-09-20T21:58:42.382Z,101096.44
2022-09-20T22:01:11.699Z,101105.28
2022-09-20T22:03:38.123Z,101096.16
2022-09-20T22:06:04.562Z,101105.06
2022-09-20T22:08:30.815Z,101109.66
2022-09-20T22:10:57.160Z,101108.81
2022-09-20T22:13:23.530Z,101117.53
2022-09-20T22:15:49.837Z,101111.38
2022-09-20T22:18:16.149Z,101108.69
2022-09-20T22:20:42.402Z,101115.03
2022-09-20T22:23:09.715Z,101111.50
2022-09-20T22:25:35.961Z,101107.84
2022-09-20T22:28:02.207Z,101114.28
2022-09-20T22:30:28.516Z,101109.88
2022-09-20T22:32:54.860Z,101110.66
2022-09-20T22:35:21.135Z,101108.81
2022-09-20T22:37:47.403Z,101113.31
2022-09-20T22:40:13.682Z,101104.50
2022-09-20T22:42:39.967Z,101110.81
2022-09-20T22:45:06.219Z,101112.72
2022-09-20T22:47:32.470Z,101110.50
2022-09-20T22:49:58.839Z,101114.66
2022-09-20T22:52:25.102Z,101116.41
2022-09-20T22:54:51.355Z,101110.84
2022-09-20T22:57:18.148Z,101109.22
2022-09-20T22:59:44.403Z,101103.06
2022-09-20T23:02:10.664Z,101104.97
2022-09-20T23:04:36.923Z,101111.22
2022-09-20T23:07:03.179Z,101118.59
2022-09-20T23:09:29.439Z,101116.00
2022-09-20T23:11:55.706Z,101112.44
2022-09-20T23:14:21.994Z,101119.53
2022-09-20T23:16:48.315Z,101118.66
2022-09-20T23:19:14.676Z,101123.19
2022-09-20T23:21:40.938Z,101118.50
2022-09-20T23:24:07.219Z,101124.81
2022-09-20T23:26:33.479Z,101122.41
2022-09-20T23:28:59.748Z,101123.38
2022-09-20T23:31:26.004Z,101123.38
2022-09-20T23:33:52.315Z,101123.19
2022-09-20T23:36:18.555Z,101125.94
2022-09-20T23:38:44.819Z,101130.47
2022-09-20T23:41:14.943Z,101133.06
2022-09-20T23:43:41.194Z,101121.47
2022-09-20T23:46:07.504Z,101122.59
2022-09-20T23:48:36.051Z,101127.19
2022-09-20T23:51:02.313Z,101125.28
2022-09-20T23:53:28.557Z,101127.78
2022-09-20T23:55:54.809Z,101127.00
2022-09-20T23:58:21.087Z,101133.13
